Highland Park, Texas
Current Conditions -  °F | °C
As of 3:53 PM on Wednesday 28 Jan 2015 (Local Time) from KDAL Reporting Station
Broken Clouds Broken Clouds  
Wind Chill: 79°   Ceiling: 25000
Heat Index: 79°   Visibility: 10mi
Dew Point: 40°   Wind: 12mph
Humidity: 25%   Direction: 200°SSW
Pressure: 29.99"   Gusts: 23mph
Location:  32.8486°N, 96.8258°W
Report Text: KDAL 282153Z 20010G20KT 10SM BKN250 BKN300 26/04 A2999 RMK AO2 SLP150 T02610044
Loading
Personal Weather Stations






























Interactive Weather Map New forecast layout! Learn more

10-Day Weather Forecast

Advertisements
Track Severe Weather on mobile